createdAt,value
2023-03-17T00:00:06.430Z,8.55
2023-03-17T00:01:06.419Z,8.55
2023-03-17T00:02:06.396Z,8.55
2023-03-17T00:03:06.339Z,8.58
2023-03-17T00:04:06.405Z,8.57
2023-03-17T00:05:06.341Z,8.55
2023-03-17T00:06:06.310Z,8.52
2023-03-17T00:07:06.294Z,8.54
2023-03-17T00:08:06.289Z,8.54
2023-03-17T00:09:06.335Z,8.57
2023-03-17T00:10:06.261Z,8.58
2023-03-17T00:11:06.235Z,8.58
2023-03-17T00:12:06.249Z,8.60
2023-03-17T00:13:06.238Z,8.58
2023-03-17T00:14:06.220Z,8.57
2023-03-17T00:15:06.222Z,8.57
2023-03-17T00:16:06.233Z,8.58
2023-03-17T00:17:06.203Z,8.58
2023-03-17T00:18:06.146Z,8.55
2023-03-17T00:19:06.172Z,8.55
2023-03-17T00:20:06.184Z,8.55
2023-03-17T00:21:06.148Z,8.54
2023-03-17T00:22:06.146Z,8.50
2023-03-17T00:23:06.114Z,8.49
2023-03-17T00:24:15.273Z,8.47
2023-03-17T00:25:06.071Z,8.46
2023-03-17T00:26:06.063Z,8.45
2023-03-17T00:27:06.025Z,8.43
2023-03-17T00:28:06.025Z,8.42
2023-03-17T00:29:06.051Z,8.42
2023-03-17T00:30:05.993Z,8.43
2023-03-17T00:31:06.020Z,8.43
2023-03-17T00:32:05.993Z,8.46
2023-03-17T00:33:06.013Z,8.45
2023-03-17T00:34:06.055Z,8.45
2023-03-17T00:35:06.004Z,8.43
2023-03-17T00:36:05.965Z,8.42
2023-03-17T00:37:05.892Z,8.39
2023-03-17T00:38:05.892Z,8.37
2023-03-17T00:39:05.868Z,8.37
2023-03-17T00:40:05.879Z,8.32
2023-03-17T00:41:05.843Z,8.32
2023-03-17T00:42:05.877Z,8.32
2023-03-17T00:43:05.836Z,8.31
2023-03-17T00:44:05.876Z,8.29
2023-03-17T00:45:05.806Z,8.28
2023-03-17T00:46:05.779Z,8.29
2023-03-17T00:47:05.831Z,8.28
2023-03-17T00:48:05.784Z,8.27
2023-03-17T00:49:05.750Z,8.29
2023-03-17T00:50:05.790Z,8.29
2023-03-17T00:51:05.697Z,8.28
2023-03-17T00:52:05.733Z,8.25
2023-03-17T00:53:05.675Z,8.21
2023-03-17T00:54:05.686Z,8.21
2023-03-17T00:55:05.788Z,8.24
2023-03-17T00:56:05.680Z,8.25
2023-03-17T00:57:05.634Z,8.25
2023-03-17T00:58:05.666Z,8.27
2023-03-17T00:59:05.627Z,8.28
2023-03-17T01:00:05.629Z,8.28
2023-03-17T01:01:05.724Z,8.27
2023-03-17T01:02:05.686Z,8.28
2023-03-17T01:03:05.579Z,8.27
2023-03-17T01:04:05.562Z,8.25
2023-03-17T01:05:06.881Z,8.25
2023-03-17T01:06:05.526Z,8.24
2023-03-17T01:07:05.527Z,8.22
2023-03-17T01:08:05.562Z,8.21
2023-03-17T01:09:05.474Z,8.21
2023-03-17T01:10:05.529Z,8.25
2023-03-17T01:11:05.549Z,8.27
2023-03-17T01:12:05.450Z,8.27
2023-03-17T01:13:05.448Z,8.29
2023-03-17T01:14:05.423Z,8.28
2023-03-17T01:15:05.448Z,8.28
2023-03-17T01:16:05.399Z,8.27
2023-03-17T01:17:05.392Z,8.25
2023-03-17T01:18:05.380Z,8.22
2023-03-17T01:19:05.356Z,8.22
2023-03-17T01:20:05.340Z,8.22
2023-03-17T01:21:05.307Z,8.21
2023-03-17T01:22:05.315Z,8.22
2023-03-17T01:23:05.280Z,8.22
2023-03-17T01:24:05.301Z,8.22
2023-03-17T01:25:05.318Z,8.25
2023-03-17T01:26:05.266Z,8.25
2023-03-17T01:27:05.248Z,8.25
2023-03-17T01:28:05.237Z,8.27
2023-03-17T01:29:05.230Z,8.25
2023-03-17T01:30:05.232Z,8.27
2023-03-17T01:31:05.212Z,8.27
2023-03-17T01:32:05.206Z,8.25
2023-03-17T01:33:05.201Z,8.24
2023-03-17T01:34:05.190Z,8.22
2023-03-17T01:35:05.141Z,8.24
2023-03-17T01:36:05.162Z,8.22
2023-03-17T01:37:05.129Z,8.25
2023-03-17T01:38:05.104Z,8.25
2023-03-17T01:39:05.102Z,8.25
2023-03-17T01:40:05.079Z,8.24
2023-03-17T01:41:05.071Z,8.22
2023-03-17T01:42:05.028Z,8.20
2023-03-17T01:43:05.040Z,8.20
2023-03-17T01:44:05.019Z,8.18
2023-03-17T01:45:05.046Z,8.17
2023-03-17T01:46:05.091Z,8.14
2023-03-17T01:47:05.025Z,8.13
2023-03-17T01:48:04.959Z,8.10
2023-03-17T01:49:04.989Z,8.12
2023-03-17T01:50:04.958Z,8.10
2023-03-17T01:51:04.929Z,8.10
2023-03-17T01:52:04.931Z,8.13
2023-03-17T01:53:04.933Z,8.20
2023-03-17T01:54:04.882Z,8.22
2023-03-17T01:55:04.952Z,8.21
2023-03-17T01:56:04.859Z,8.20
2023-03-17T01:57:04.928Z,8.20
2023-03-17T01:58:04.836Z,8.17
2023-03-17T01:59:04.852Z,8.18
2023-03-17T02:00:04.857Z,8.14
2023-03-17T02:01:04.899Z,8.14
2023-03-17T02:02:04.807Z,8.14
2023-03-17T02:03:04.811Z,8.17
2023-03-17T02:04:04.862Z,8.17
2023-03-17T02:05:04.751Z,8.18
2023-03-17T02:06:04.750Z,8.17
2023-03-17T02:07:04.724Z,8.18
2023-03-17T02:08:04.730Z,8.17
2023-03-17T02:09:04.736Z,8.21
2023-03-17T02:10:04.730Z,8.20
2023-03-17T02:11:04.682Z,8.18
2023-03-17T02:12:04.668Z,8.17
2023-03-17T02:13:04.672Z,8.14
2023-03-17T02:14:04.611Z,8.12
2023-03-17T02:15:04.640Z,8.10
2023-03-17T02:16:04.617Z,8.07
2023-03-17T02:17:04.607Z,8.06
2023-03-17T02:18:04.571Z,8.07
2023-03-17T02:19:04.558Z,8.06
2023-03-17T02:20:04.586Z,8.04
2023-03-17T02:21:04.550Z,8.06
2023-03-17T02:22:04.536Z,8.06
2023-03-17T02:23:04.510Z,8.09
2023-03-17T02:24:04.518Z,8.10
2023-03-17T02:25:04.555Z,8.10
2023-03-17T02:26:04.465Z,8.07
2023-03-17T02:27:04.467Z,8.09
2023-03-17T02:28:04.455Z,8.09
2023-03-17T02:29:04.464Z,8.07
2023-03-17T02:30:04.436Z,8.07
2023-03-17T02:31:04.498Z,8.04
2023-03-17T02:32:04.410Z,8.04
2023-03-17T02:33:04.443Z,8.02
2023-03-17T02:34:04.362Z,8.00
2023-03-17T02:35:04.360Z,8.00
2023-03-17T02:36:04.423Z,8.02
2023-03-17T02:37:04.344Z,8.02
2023-03-17T02:38:04.298Z,8.04
2023-03-17T02:39:04.354Z,8.04
2023-03-17T02:40:04.307Z,8.06
2023-03-17T02:41:04.310Z,8.10
2023-03-17T02:42:04.277Z,8.10
2023-03-17T02:43:04.279Z,8.09
2023-03-17T02:44:04.292Z,8.07
2023-03-17T02:45:04.225Z,8.07
2023-03-17T02:46:04.325Z,8.07
2023-03-17T02:47:04.300Z,8.06
2023-03-17T02:48:04.170Z,8.07
2023-03-17T02:49:04.233Z,8.06
2023-03-17T02:50:04.150Z,8.06
2023-03-17T02:51:04.187Z,8.03
2023-03-17T02:52:04.156Z,8.02
2023-03-17T02:53:04.150Z,7.99
2023-03-17T02:54:04.131Z,7.96
2023-03-17T02:55:04.089Z,7.96
2023-03-17T02:56:04.122Z,7.95
2023-03-17T02:57:04.132Z,7.95
2023-03-17T02:58:04.052Z,7.99
2023-03-17T02:59:04.049Z,7.94
2023-03-17T03:00:04.045Z,7.95
2023-03-17T03:01:04.136Z,7.92
2023-03-17T03:02:04.017Z,7.94
2023-03-17T03:03:04.015Z,7.91
2023-03-17T03:04:04.019Z,7.92
2023-03-17T03:05:03.995Z,7.92
2023-03-17T03:06:03.967Z,7.91
2023-03-17T03:07:03.950Z,7.94
2023-03-17T03:08:03.941Z,7.95
2023-03-17T03:09:03.922Z,7.95
2023-03-17T03:10:03.917Z,7.95
2023-03-17T03:11:03.927Z,7.89
2023-03-17T03:12:03.916Z,7.94
2023-03-17T03:13:03.860Z,7.92
2023-03-17T03:14:03.877Z,7.92
2023-03-17T03:15:03.847Z,7.92
2023-03-17T03:16:03.877Z,7.95
2023-03-17T03:17:03.835Z,7.94
2023-03-17T03:18:03.812Z,7.94
2023-03-17T03:19:03.812Z,7.94
2023-03-17T03:20:03.791Z,7.91
2023-03-17T03:21:03.792Z,7.89
2023-03-17T03:22:03.749Z,7.88
2023-03-17T03:23:03.754Z,7.85
2023-03-17T03:24:03.750Z,7.86
2023-03-17T03:25:03.709Z,7.86
2023-03-17T03:26:03.698Z,7.88
2023-03-17T03:27:03.740Z,7.88
2023-03-17T03:28:03.691Z,7.91
2023-03-17T03:29:03.666Z,7.89
2023-03-17T03:30:03.650Z,7.88
2023-03-17T03:31:03.737Z,7.89
2023-03-17T03:32:03.651Z,7.86
2023-03-17T03:33:03.613Z,7.88
2023-03-17T03:34:03.620Z,7.82
2023-03-17T03:35:03.609Z,7.81
2023-03-17T03:36:03.579Z,7.79
2023-03-17T03:37:03.620Z,7.77
2023-03-17T03:38:03.557Z,7.76
2023-03-17T03:39:03.547Z,7.76
2023-03-17T03:40:03.501Z,7.77
2023-03-17T03:41:03.522Z,7.77
2023-03-17T03:42:03.482Z,7.79
2023-03-17T03:43:12.994Z,7.77
2023-03-17T03:44:04.482Z,7.77
2023-03-17T03:45:03.461Z,7.81
2023-03-17T03:46:03.512Z,7.76
2023-03-17T03:47:03.475Z,7.74
2023-03-17T03:48:03.378Z,7.73
2023-03-17T03:49:03.392Z,7.70
2023-03-17T03:50:03.377Z,7.70
2023-03-17T03:51:03.389Z,7.69
2023-03-17T03:52:03.363Z,7.67
2023-03-17T03:53:03.357Z,7.67
2023-03-17T03:54:03.304Z,7.67
2023-03-17T03:55:03.295Z,7.69
2023-03-17T03:56:03.278Z,7.69
2023-03-17T03:57:03.341Z,7.67
2023-03-17T03:58:03.254Z,7.70
2023-03-17T03:59:03.273Z,7.71
2023-03-17T04:00:03.302Z,7.70
2023-03-17T04:01:03.273Z,7.70
2023-03-17T04:02:03.227Z,7.70
2023-03-17T04:03:03.271Z,7.70
2023-03-17T04:04:03.206Z,7.70
2023-03-17T04:05:03.210Z,7.73
2023-03-17T04:06:03.172Z,7.73
2023-03-17T04:07:03.152Z,7.76
2023-03-17T04:08:03.142Z,7.76
2023-03-17T04:09:03.186Z,7.76
2023-03-17T04:10:03.103Z,7.77
2023-03-17T04:11:03.127Z,7.77
2023-03-17T04:12:03.090Z,7.74
2023-03-17T04:13:03.070Z,7.74
2023-03-17T04:14:03.060Z,7.76
2023-03-17T04:15:03.069Z,7.74
2023-03-17T04:16:03.067Z,7.71
2023-03-17T04:17:03.018Z,7.73
2023-03-17T04:18:02.991Z,7.70
2023-03-17T04:19:03.093Z,7.69
2023-03-17T04:20:02.986Z,7.67
2023-03-17T04:21:03.023Z,7.63
2023-03-17T04:22:02.961Z,7.63
2023-03-17T04:23:02.945Z,7.63
2023-03-17T04:24:02.912Z,7.62
2023-03-17T04:25:02.938Z,7.62
2023-03-17T04:26:02.883Z,7.60
2023-03-17T04:27:05.492Z,7.63
2023-03-17T04:28:02.849Z,7.63
2023-03-17T04:29:02.894Z,7.62
2023-03-17T04:30:02.827Z,7.62
2023-03-17T04:31:02.831Z,7.63
2023-03-17T04:32:02.845Z,7.63
2023-03-17T04:33:02.974Z,7.66
2023-03-17T04:34:02.812Z,7.69
2023-03-17T04:35:02.824Z,7.66
2023-03-17T04:36:02.771Z,7.69
2023-03-17T04:37:02.749Z,7.67
2023-03-17T04:38:02.732Z,7.67
2023-03-17T04:39:02.774Z,7.67
2023-03-17T04:40:02.711Z,7.66
2023-03-17T04:41:02.737Z,7.66
2023-03-17T04:42:02.674Z,7.66
2023-03-17T04:43:03.611Z,7.63
2023-03-17T04:44:02.673Z,7.63
2023-03-17T04:45:02.693Z,7.60
2023-03-17T04:46:02.714Z,7.60
2023-03-17T04:47:02.656Z,7.60
2023-03-17T04:48:02.629Z,7.58
2023-03-17T04:49:02.635Z,7.58
2023-03-17T04:50:02.577Z,7.60
2023-03-17T04:51:02.589Z,7.63
2023-03-17T04:52:02.549Z,7.66
2023-03-17T04:53:02.537Z,7.63
2023-03-17T04:54:02.545Z,7.62
2023-03-17T04:55:02.516Z,7.62
2023-03-17T04:56:02.488Z,7.60
2023-03-17T04:57:02.551Z,7.60
2023-03-17T04:58:02.492Z,7.57
2023-03-17T04:59:02.522Z,7.57
2023-03-17T05:00:02.455Z,7.55
2023-03-17T05:01:02.529Z,7.58
2023-03-17T05:02:02.478Z,7.55
2023-03-17T05:03:02.417Z,7.54
2023-03-17T05:04:02.448Z,7.57
2023-03-17T05:05:02.414Z,7.55
2023-03-17T05:06:02.405Z,7.57
2023-03-17T05:07:02.353Z,7.55
2023-03-17T05:08:02.345Z,7.55
2023-03-17T05:09:02.352Z,7.54
2023-03-17T05:10:02.334Z,7.55
2023-03-17T05:11:02.327Z,7.54
2023-03-17T05:12:02.299Z,7.55
2023-03-17T05:13:02.307Z,7.55
2023-03-17T05:14:02.312Z,7.55
2023-03-17T05:15:02.276Z,7.55
2023-03-17T05:16:02.231Z,7.51
2023-03-17T05:17:02.224Z,7.51
2023-03-17T05:18:04.876Z,7.50
2023-03-17T05:19:02.270Z,7.48
2023-03-17T05:20:02.177Z,7.48
2023-03-17T05:21:02.171Z,7.45
2023-03-17T05:22:02.168Z,7.47
2023-03-17T05:23:02.185Z,7.47
2023-03-17T05:24:02.159Z,7.45
2023-03-17T05:25:02.143Z,7.47
2023-03-17T05:26:02.092Z,7.47
2023-03-17T05:27:02.112Z,7.44
2023-03-17T05:28:02.084Z,7.44
2023-03-17T05:29:02.092Z,7.44
2023-03-17T05:30:02.056Z,7.45
2023-03-17T05:31:02.090Z,7.44
2023-03-17T05:32:02.037Z,7.45
2023-03-17T05:33:02.087Z,7.44
2023-03-17T05:34:02.041Z,7.44
2023-03-17T05:35:02.039Z,7.44
2023-03-17T05:36:01.983Z,7.42
2023-03-17T05:37:02.004Z,7.44
2023-03-17T05:38:01.983Z,7.44
2023-03-17T05:39:01.964Z,7.39
2023-03-17T05:40:01.936Z,7.39
2023-03-17T05:41:01.897Z,7.41
2023-03-17T05:42:01.921Z,7.41
2023-03-17T05:43:01.898Z,7.39
2023-03-17T05:44:01.886Z,7.37
2023-03-17T05:45:01.854Z,7.37
2023-03-17T05:46:01.903Z,7.39
2023-03-17T05:47:01.843Z,7.37
2023-03-17T05:48:01.813Z,7.41
2023-03-17T05:49:01.814Z,7.42
2023-03-17T05:50:01.805Z,7.44
2023-03-17T05:51:01.826Z,7.45
2023-03-17T05:52:01.789Z,7.45
2023-03-17T05:53:01.764Z,7.44
2023-03-17T05:54:01.744Z,7.42
2023-03-17T05:55:01.778Z,7.42
2023-03-17T05:56:01.748Z,7.42
2023-03-17T05:57:01.686Z,7.41
2023-03-17T05:58:01.686Z,7.42
2023-03-17T05:59:01.676Z,7.44
2023-03-17T06:00:01.659Z,7.42
2023-03-17T06:01:01.686Z,7.41
2023-03-17T06:02:01.717Z,7.42
2023-03-17T06:03:01.632Z,7.42
2023-03-17T06:04:01.641Z,7.41
2023-03-17T06:05:01.613Z,7.42
2023-03-17T06:06:01.607Z,7.42
2023-03-17T06:07:01.613Z,7.42
2023-03-17T06:08:01.580Z,7.44
2023-03-17T06:09:01.578Z,7.44
2023-03-17T06:10:01.566Z,7.44
2023-03-17T06:11:01.505Z,7.44
2023-03-17T06:12:01.517Z,7.45
2023-03-17T06:13:03.766Z,7.47
2023-03-17T06:14:01.509Z,7.48
2023-03-17T06:15:01.451Z,7.48
2023-03-17T06:16:01.563Z,7.50
2023-03-17T06:17:01.422Z,7.51
2023-03-17T06:18:01.422Z,7.52
2023-03-17T06:19:01.428Z,7.54
2023-03-17T06:20:01.441Z,7.58
2023-03-17T06:21:01.408Z,7.58
2023-03-17T06:22:01.405Z,7.57
2023-03-17T06:23:04.753Z,7.60
2023-03-17T06:24:01.438Z,7.58
2023-03-17T06:25:10.201Z,7.60
2023-03-17T06:26:01.318Z,7.58
2023-03-17T06:27:03.124Z,7.58
2023-03-17T06:28:01.288Z,7.60
2023-03-17T06:29:01.334Z,7.62
2023-03-17T06:30:01.301Z,7.66
2023-03-17T06:31:01.319Z,7.67
2023-03-17T06:32:17.094Z,7.70
2023-03-17T06:33:02.373Z,7.73
2023-03-17T06:34:01.205Z,7.74
2023-03-17T06:35:01.229Z,7.76
2023-03-17T06:36:01.264Z,7.79
2023-03-17T06:37:01.195Z,7.76
2023-03-17T06:38:01.172Z,7.81
2023-03-17T06:39:01.161Z,7.82
2023-03-17T06:40:01.206Z,7.85
2023-03-17T06:41:01.160Z,7.85
2023-03-17T06:42:01.112Z,7.86
2023-03-17T06:43:01.163Z,7.88
2023-03-17T06:44:01.085Z,7.91
2023-03-17T06:45:01.129Z,7.92
2023-03-17T06:46:01.072Z,7.95
2023-03-17T06:47:01.057Z,7.96
2023-03-17T06:48:01.035Z,8.00
2023-03-17T06:49:01.039Z,8.04
2023-03-17T06:50:01.013Z,8.06
2023-03-17T06:51:01.021Z,8.10
2023-03-17T06:52:01.012Z,8.14
2023-03-17T06:53:00.990Z,8.18
2023-03-17T06:54:00.972Z,8.17
2023-03-17T06:55:00.964Z,8.20
2023-03-17T06:56:00.957Z,8.21
2023-03-17T06:57:00.989Z,8.22
2023-03-17T06:58:00.915Z,8.22
2023-03-17T06:59:00.874Z,8.24
2023-03-17T07:00:00.907Z,8.22
2023-03-17T07:01:00.900Z,8.24
2023-03-17T07:02:00.901Z,8.25
2023-03-17T07:03:00.861Z,8.24
2023-03-17T07:04:00.857Z,8.25
2023-03-17T07:05:00.905Z,8.25
2023-03-17T07:06:00.818Z,8.25
2023-03-17T07:07:00.796Z,8.25
2023-03-17T07:08:00.767Z,8.27
2023-03-17T07:09:02.253Z,8.29
2023-03-17T07:10:00.767Z,8.31
2023-03-17T07:11:00.857Z,8.34
2023-03-17T07:12:00.771Z,8.36
2023-03-17T07:13:00.688Z,8.37
2023-03-17T07:14:00.721Z,8.37
2023-03-17T07:15:00.693Z,8.37
2023-03-17T07:16:00.942Z,8.40
2023-03-17T07:17:00.656Z,8.42
2023-03-17T07:18:00.664Z,8.45
2023-03-17T07:19:00.668Z,8.49
2023-03-17T07:20:00.640Z,8.50
2023-03-17T07:21:00.657Z,8.52
2023-03-17T07:22:00.635Z,8.55
2023-03-17T07:23:00.599Z,8.60
2023-03-17T07:24:00.605Z,8.61
2023-03-17T07:25:00.612Z,8.65
2023-03-17T07:26:00.549Z,8.68
2023-03-17T07:27:00.606Z,8.73
2023-03-17T07:28:00.507Z,8.75
2023-03-17T07:29:00.489Z,8.82
2023-03-17T07:30:00.482Z,8.83
2023-03-17T07:31:00.527Z,8.88
2023-03-17T07:32:00.507Z,8.91
2023-03-17T07:33:00.550Z,8.96
2023-03-17T07:34:00.470Z,9.00
2023-03-17T07:35:00.449Z,9.04
2023-03-17T07:36:00.449Z,9.08
2023-03-17T07:37:00.472Z,9.12
2023-03-17T07:38:00.377Z,9.12
2023-03-17T07:39:00.373Z,9.15
2023-03-17T07:40:00.381Z,9.17
2023-03-17T07:41:00.324Z,9.22
2023-03-17T07:42:00.340Z,9.27
2023-03-17T07:43:00.317Z,9.32
2023-03-17T07:44:00.347Z,9.35
2023-03-17T07:45:00.317Z,9.40
2023-03-17T07:46:00.311Z,9.42
2023-03-17T07:47:00.295Z,9.45
2023-03-17T07:48:00.246Z,9.50
2023-03-17T07:49:00.215Z,9.55
2023-03-17T07:50:00.223Z,9.56
2023-03-17T07:51:00.279Z,9.58
2023-03-17T07:52:00.276Z,9.60
2023-03-17T07:53:00.160Z,9.60
2023-03-17T07:54:00.166Z,9.60
2023-03-17T07:55:00.179Z,9.60
2023-03-17T07:56:00.168Z,9.62
2023-03-17T07:57:00.180Z,9.63
2023-03-17T07:58:00.268Z,9.63
2023-03-17T07:59:00.125Z,9.67
2023-03-17T08:00:00.086Z,9.70
2023-03-17T08:01:00.151Z,9.74
2023-03-17T08:02:00.234Z,9.74
2023-03-17T08:03:09.745Z,9.75
2023-03-17T08:04:01.113Z,9.77
2023-03-17T08:05:00.094Z,9.78
2023-03-17T08:06:00.172Z,9.80
2023-03-17T08:07:00.043Z,9.78
2023-03-17T08:08:00.005Z,9.78
2023-03-17T08:09:00.027Z,9.78
2023-03-17T08:09:59.949Z,9.78
2023-03-17T08:10:59.950Z,9.78
2023-03-17T08:11:59.980Z,9.81
2023-03-17T08:12:59.964Z,9.81
2023-03-17T08:13:59.950Z,9.85
2023-03-17T08:14:59.884Z,9.85
2023-03-17T08:15:59.894Z,9.89
2023-03-17T08:16:59.985Z,9.89
2023-03-17T08:17:59.884Z,9.93
2023-03-17T08:18:59.873Z,9.93
2023-03-17T08:19:59.832Z,9.96
2023-03-17T08:20:59.810Z,9.98
2023-03-17T08:21:59.818Z,10.01
2023-03-17T08:23:00.518Z,10.02
2023-03-17T08:23:59.846Z,10.04
2023-03-17T08:24:59.979Z,10.06
2023-03-17T08:25:59.821Z,10.09
2023-03-17T08:27:00.930Z,10.10
2023-03-17T08:27:59.734Z,10.13
2023-03-17T08:28:59.741Z,10.16
2023-03-17T08:29:59.698Z,10.20
2023-03-17T08:30:59.705Z,10.22
2023-03-17T08:31:59.720Z,10.26
2023-03-17T08:32:59.724Z,10.31
2023-03-17T08:33:59.672Z,10.38
2023-03-17T08:34:59.648Z,10.42
2023-03-17T08:35:59.692Z,10.44
2023-03-17T08:36:59.631Z,10.52
2023-03-17T08:37:59.667Z,10.54
2023-03-17T08:38:59.592Z,10.60
2023-03-17T08:39:59.585Z,10.62
2023-03-17T08:40:59.576Z,10.63
2023-03-17T08:42:02.297Z,10.65
2023-03-17T08:42:59.557Z,10.65
2023-03-17T08:43:59.839Z,10.68
2023-03-17T08:44:59.544Z,10.69
2023-03-17T08:45:59.578Z,10.70
2023-03-17T08:46:59.503Z,10.69
2023-03-17T08:47:59.462Z,10.72
2023-03-17T08:48:59.476Z,10.72
2023-03-17T08:49:59.449Z,10.75
2023-03-17T08:50:59.493Z,10.76
2023-03-17T08:51:59.468Z,10.76
2023-03-17T08:52:59.412Z,10.78
2023-03-17T08:53:59.446Z,10.80
2023-03-17T08:54:59.410Z,10.81
2023-03-17T08:55:59.398Z,10.80
2023-03-17T08:56:59.377Z,10.80
2023-03-17T08:57:59.367Z,10.80
2023-03-17T08:58:59.352Z,10.83
2023-03-17T08:59:59.356Z,10.83
2023-03-17T09:00:59.313Z,10.84
2023-03-17T09:01:59.356Z,10.86
2023-03-17T09:02:59.349Z,10.88
2023-03-17T09:03:59.292Z,10.88
2023-03-17T09:04:59.250Z,10.91
2023-03-17T09:05:59.282Z,10.93
2023-03-17T09:07:03.602Z,10.94
2023-03-17T09:08:00.307Z,10.94
2023-03-17T09:08:59.198Z,10.93
2023-03-17T09:09:59.348Z,10.94
2023-03-17T09:10:59.188Z,10.98
2023-03-17T09:11:59.176Z,10.99
2023-03-17T09:12:59.131Z,10.99
2023-03-17T09:13:59.161Z,10.99
2023-03-17T09:14:59.108Z,11.01
2023-03-17T09:15:59.144Z,11.02
2023-03-17T09:16:59.105Z,11.02
2023-03-17T09:17:59.117Z,11.02
2023-03-17T09:18:59.048Z,11.02
2023-03-17T09:19:59.127Z,11.05
2023-03-17T09:20:59.053Z,11.05
2023-03-17T09:21:59.045Z,11.06
2023-03-17T09:22:58.996Z,11.09
2023-03-17T09:24:02.141Z,11.12
2023-03-17T09:24:59.024Z,11.12
2023-03-17T09:25:59.028Z,11.17
2023-03-17T09:26:58.945Z,11.19
2023-03-17T09:27:58.975Z,11.20
2023-03-17T09:28:58.949Z,11.19
2023-03-17T09:29:58.914Z,11.20
2023-03-17T09:30:58.942Z,11.26
2023-03-17T09:31:58.905Z,11.30
2023-03-17T09:32:58.906Z,11.33
2023-03-17T09:33:58.913Z,11.35
2023-03-17T09:34:58.881Z,11.41
2023-03-17T09:35:58.876Z,11.48
2023-03-17T09:36:58.813Z,11.51
2023-03-17T09:37:58.840Z,11.51
2023-03-17T09:38:58.843Z,11.51
2023-03-17T09:39:58.793Z,11.56
2023-03-17T09:40:58.802Z,11.60
2023-03-17T09:41:58.753Z,11.60
2023-03-17T09:42:58.731Z,11.60
2023-03-17T09:43:58.723Z,11.63
2023-03-17T09:44:58.750Z,11.70
2023-03-17T09:45:58.721Z,11.77
2023-03-17T09:46:58.710Z,11.81
2023-03-17T09:47:58.708Z,11.81
2023-03-17T09:48:58.654Z,11.81
2023-03-17T09:49:58.670Z,11.81
2023-03-17T09:50:58.642Z,11.79
2023-03-17T09:51:58.647Z,11.78
2023-03-17T09:52:58.634Z,11.78
2023-03-17T09:53:58.604Z,11.79
2023-03-17T09:54:58.647Z,11.78
2023-03-17T09:55:58.585Z,11.81
2023-03-17T09:56:58.587Z,11.82
2023-03-17T09:57:58.566Z,11.84
2023-03-17T09:58:58.558Z,11.85
2023-03-17T09:59:58.579Z,11.87
2023-03-17T10:00:58.536Z,11.94
2023-03-17T10:01:58.580Z,11.97
2023-03-17T10:02:58.476Z,12.00
2023-03-17T10:03:58.488Z,12.04
2023-03-17T10:04:58.511Z,12.08
2023-03-17T10:05:58.427Z,12.08
2023-03-17T10:06:58.426Z,12.13
2023-03-17T10:07:58.403Z,12.21
2023-03-17T10:08:58.417Z,12.25
2023-03-17T10:09:58.427Z,12.31
2023-03-17T10:10:58.391Z,12.37
2023-03-17T10:11:58.381Z,12.48
2023-03-17T10:12:58.345Z,12.52
2023-03-17T10:13:58.339Z,12.52
2023-03-17T10:14:58.368Z,12.54
2023-03-17T10:15:58.347Z,12.58
2023-03-17T10:16:58.314Z,12.59
2023-03-17T10:17:58.292Z,12.59
2023-03-17T10:18:58.303Z,12.61
2023-03-17T10:19:58.243Z,12.63
2023-03-17T10:20:58.263Z,12.63
2023-03-17T10:21:58.252Z,12.66
2023-03-17T10:22:58.249Z,12.66
2023-03-17T10:23:58.231Z,12.66
2023-03-17T10:24:58.277Z,12.67
2023-03-17T10:25:58.164Z,12.67
2023-03-17T10:26:58.167Z,12.69
2023-03-17T10:27:58.143Z,12.63
2023-03-17T10:28:58.161Z,12.67
2023-03-17T10:29:58.142Z,12.70
2023-03-17T10:30:58.144Z,12.73
2023-03-17T10:31:58.745Z,12.71
2023-03-17T10:32:58.143Z,12.77
2023-03-17T10:33:58.089Z,12.80
2023-03-17T10:34:58.077Z,12.80
2023-03-17T10:35:58.100Z,12.84
2023-03-17T10:36:58.134Z,12.89
2023-03-17T10:38:13.613Z,12.95
2023-03-17T10:38:59.025Z,12.98
2023-03-17T10:39:57.982Z,13.03
2023-03-17T10:40:58.050Z,13.03
2023-03-17T10:41:58.007Z,13.06
2023-03-17T10:42:57.999Z,13.10
2023-03-17T10:43:57.943Z,13.10
2023-03-17T10:44:57.965Z,13.17
2023-03-17T10:45:57.969Z,13.24
2023-03-17T10:46:57.964Z,13.27
2023-03-17T10:47:57.900Z,13.25
2023-03-17T10:48:57.919Z,13.31
2023-03-17T10:49:57.857Z,13.35
2023-03-17T10:50:57.911Z,13.38
2023-03-17T10:51:57.868Z,13.41
2023-03-17T10:52:57.875Z,13.46
2023-03-17T10:53:57.819Z,13.47
2023-03-17T10:54:57.809Z,13.54
2023-03-17T10:55:57.831Z,13.62
2023-03-17T10:56:59.186Z,13.68
2023-03-17T10:57:57.755Z,13.71
2023-03-17T10:58:57.780Z,13.71
2023-03-17T10:59:57.725Z,13.75
2023-03-17T11:00:57.814Z,13.79
2023-03-17T11:01:57.703Z,13.86
2023-03-17T11:02:57.692Z,13.94
2023-03-17T11:03:57.773Z,13.98
2023-03-17T11:04:57.669Z,14.04
2023-03-17T11:05:57.659Z,14.05
2023-03-17T11:06:57.668Z,14.06
2023-03-17T11:07:57.647Z,14.11
2023-03-17T11:08:57.620Z,14.09
2023-03-17T11:09:57.637Z,14.12
2023-03-17T11:10:57.637Z,14.16
2023-03-17T11:11:57.569Z,14.13
2023-03-17T11:12:57.572Z,14.16
2023-03-17T11:13:57.568Z,14.16
2023-03-17T11:14:57.567Z,14.12
2023-03-17T11:15:57.592Z,14.17
2023-03-17T11:16:57.550Z,14.17
2023-03-17T11:17:57.497Z,14.17
2023-03-17T11:18:57.505Z,14.17
2023-03-17T11:19:57.473Z,14.19
2023-03-17T11:20:57.483Z,14.16
2023-03-17T11:21:57.465Z,14.11
2023-03-17T11:22:57.451Z,14.12
2023-03-17T11:23:57.413Z,14.12
2023-03-17T11:24:57.438Z,14.16
2023-03-17T11:25:57.437Z,14.16
2023-03-17T11:26:57.410Z,14.19
2023-03-17T11:27:57.386Z,14.17
2023-03-17T11:28:57.360Z,14.16
2023-03-17T11:29:57.344Z,14.13
2023-03-17T11:30:57.386Z,14.19
2023-03-17T11:31:57.430Z,14.19
2023-03-17T11:32:57.339Z,14.19
2023-03-17T11:33:57.318Z,14.17
2023-03-17T11:34:57.320Z,14.20
2023-03-17T11:35:57.314Z,14.20
2023-03-17T11:36:59.129Z,14.21
2023-03-17T11:37:57.264Z,14.23
2023-03-17T11:38:57.229Z,14.29
2023-03-17T11:39:57.199Z,14.35
2023-03-17T11:40:57.275Z,14.41
2023-03-17T11:41:57.178Z,14.44
2023-03-17T11:42:57.209Z,14.45
2023-03-17T11:43:57.186Z,14.48
2023-03-17T11:44:57.148Z,14.53
2023-03-17T11:45:57.247Z,14.53
2023-03-17T11:46:57.164Z,14.54
2023-03-17T11:47:58.249Z,14.54
2023-03-17T11:48:57.125Z,14.56
2023-03-17T11:49:57.087Z,14.56
2023-03-17T11:50:57.078Z,14.59
2023-03-17T11:51:57.060Z,14.63
2023-03-17T11:52:57.064Z,14.63
2023-03-17T11:53:57.052Z,14.69
2023-03-17T11:54:58.824Z,14.71
2023-03-17T11:55:57.033Z,14.71
2023-03-17T11:56:57.033Z,14.71
2023-03-17T11:57:56.977Z,14.69
2023-03-17T11:58:56.987Z,14.67
2023-03-17T11:59:56.962Z,14.64
2023-03-17T12:00:56.967Z,14.63
2023-03-17T12:01:56.930Z,14.61
2023-03-17T12:02:56.936Z,14.61
2023-03-17T12:03:57.049Z,14.63
2023-03-17T12:04:56.882Z,14.66
2023-03-17T12:05:56.907Z,14.69
2023-03-17T12:06:57.176Z,14.69
2023-03-17T12:07:56.835Z,14.69
2023-03-17T12:08:56.865Z,14.71
2023-03-17T12:09:56.803Z,14.71
2023-03-17T12:10:56.872Z,14.67
2023-03-17T12:11:56.804Z,14.69
2023-03-17T12:12:56.788Z,14.71
2023-03-17T12:13:56.753Z,14.67
2023-03-17T12:14:56.781Z,14.71
2023-03-17T12:15:56.882Z,14.72
2023-03-17T12:16:56.762Z,14.75
2023-03-17T12:17:56.697Z,14.82
2023-03-17T12:18:56.725Z,14.85
2023-03-17T12:19:56.722Z,14.91
2023-03-17T12:20:56.722Z,14.94
2023-03-17T12:21:56.637Z,14.97
2023-03-17T12:22:57.102Z,14.97
2023-03-17T12:23:56.675Z,14.97
2023-03-17T12:24:56.644Z,14.98
2023-03-17T12:25:56.669Z,14.98
2023-03-17T12:26:56.597Z,14.97
2023-03-17T12:27:56.602Z,14.97
2023-03-17T12:28:57.402Z,14.98
2023-03-17T12:29:56.544Z,15.00
2023-03-17T12:30:56.544Z,15.00
2023-03-17T12:31:56.562Z,15.05
2023-03-17T12:32:56.582Z,15.09
2023-03-17T12:33:56.499Z,15.13
2023-03-17T12:34:57.384Z,15.20
2023-03-17T12:35:56.499Z,15.18
2023-03-17T12:36:56.483Z,15.16
2023-03-17T12:37:56.451Z,15.19
2023-03-17T12:38:56.465Z,15.20
2023-03-17T12:39:56.435Z,15.23
2023-03-17T12:40:56.433Z,15.20
2023-03-17T12:41:56.435Z,15.23
2023-03-17T12:42:56.404Z,15.25
2023-03-17T12:43:56.401Z,15.25
2023-03-17T12:44:56.363Z,15.23
2023-03-17T12:45:56.371Z,15.23
2023-03-17T12:46:56.322Z,15.27
2023-03-17T12:47:56.343Z,15.28
2023-03-17T12:48:56.343Z,15.27
2023-03-17T12:49:56.284Z,15.27
2023-03-17T12:50:56.276Z,15.30
2023-03-17T12:51:56.252Z,15.28
2023-03-17T12:52:56.284Z,15.25
2023-03-17T12:53:56.232Z,15.28
2023-03-17T12:54:56.221Z,15.30
2023-03-17T12:55:56.227Z,15.31
2023-03-17T12:56:56.236Z,15.34
2023-03-17T12:57:56.206Z,15.37
2023-03-17T12:58:56.250Z,15.40
2023-03-17T12:59:56.143Z,15.41
2023-03-17T13:00:56.141Z,15.38
2023-03-17T13:01:56.149Z,15.40
2023-03-17T13:02:56.174Z,15.44
2023-03-17T13:03:56.115Z,15.49
2023-03-17T13:04:56.109Z,15.48
2023-03-17T13:05:56.123Z,15.44
2023-03-17T13:06:56.101Z,15.43
2023-03-17T13:07:56.066Z,15.43